KSGF/SGF METAR and TAF weather

Enter ICAO airport designator
Station Type Date Time Source
KSGF METAR 2020/06/03 15:52 UTC NOAA

KSGF 031552Z 24013KT 10SM CLR 28/21 A2997 RMK AO2 SLP137 T02780211


Station Type Date Time Source
KSGF Decoded METAR 2020/06/03 15:52 UTC NOAA

SPRINGFIELD-BRANSON NATIONAL, MO, United States (KSGF) 37-14N 93-23W 389M
Jun 03, 2020 - 11:52 AM EDT / 2020.06.03 1552 UTC
Wind: from the WSW (240 degrees) at 15 MPH (13 KT):0
Visibility: 10 mile(s):0
Sky conditions: clear
Temperature: 82.0 F (27.8 C)
Dew Point: 70.0 F (21.1 C)
Relative Humidity: 66%
Pressure (altimeter): 29.97 in. Hg (1014 hPa)
ob: KSGF 031552Z 24013KT 10SM CLR 28/21 A2997 RMK AO2 SLP137 T02780211
cycle: 16

Station Type Date Time Source
KSGF TAF 2020/06/03 12:27 UTC NOAA

TAF KSGF 031125Z 0312/0412 19005KT P6SM FEW200
FM031300 22009KT P6SM FEW250
FM031600 24011KT P6SM FEW150
FM040000 21007KT P6SM FEW250 PROB30 0409/0412 4SM TSRA OVC025CB

Example: see airport list